Main page
METAR-TAF:

METAR-TAF

Airports :

Agen La Garenne Airport

Agen, France

latitude: 44-11N, longitude: 000-36E, elevation: 61 m

Current weather observation

The report was made 32 minutes ago, at 22:00 UTC
Wind 6 kt from the East/Southeast
Temperature 4°C
Humidity 93%
Pressure 1022 hPa
Visibility 10 km or more
no clouds below 1500 m and no cumulonimbus

METAR: LFBA 102200Z AUTO 12006KT CAVOK 04/03 Q1022

Time: 23:32 (22:32 UTC)

Forecast

The report was made 5 hours and 32 minutes ago, at 17:00 UTC
Forecast valid from 10 at 18 UTC to 11 at 03 UTC
Wind 6 kt from the East/Southeast
Visibility 10 km or more
no clouds below 1500 m and no cumulonimbus

TAF: LFBA 101700Z 1018/1103 12006KT CAVOK

Weather observations and forecasts of more than 4000 airports (METAR and TAF reports).

The available stations are represented by yellow and red dots on the map.

Hover mouse over dot to see the name of the station.

Then click to see weather observations and forecasts.

To change the map : click on the green buttons with a black cross to zoom in, on the green button with a dash to zoom out, or on the green arrows for adjacent maps.


METAR-TAF: